sensor_id;sensor_type;location;lat;lon;timestamp;pressure;altitude;pressure_sealevel;temperature;humidity
39267;BME280;24967;51.154;13.812;2023-03-03T00:00:54;100007.38;;;1.42;81.44
39267;BME280;24967;51.154;13.812;2023-03-03T00:03:23;100007.56;;;1.39;81.60
39267;BME280;24967;51.154;13.812;2023-03-03T00:05:52;100010.75;;;1.77;80.86
39267;BME280;24967;51.154;13.812;2023-03-03T00:08:20;100013.53;;;1.74;80.61
39267;BME280;24967;51.154;13.812;2023-03-03T00:10:47;100015.06;;;1.78;80.00
39267;BME280;24967;51.154;13.812;2023-03-03T00:13:15;100014.88;;;1.66;80.92
39267;BME280;24967;51.154;13.812;2023-03-03T00:15:42;100023.34;;;1.87;80.50
39267;BME280;24967;51.154;13.812;2023-03-03T00:18:17;100019.81;;;1.88;80.49
39267;BME280;24967;51.154;13.812;2023-03-03T00:20:47;100016.88;;;1.94;80.27
39267;BME280;24967;51.154;13.812;2023-03-03T00:23:20;100024.56;;;1.97;79.73
39267;BME280;24967;51.154;13.812;2023-03-03T00:25:50;100029.69;;;1.67;80.96
39267;BME280;24967;51.154;13.812;2023-03-03T00:28:24;100034.44;;;1.92;81.35
39267;BME280;24967;51.154;13.812;2023-03-03T00:30:53;100038.59;;;1.96;80.26
39267;BME280;24967;51.154;13.812;2023-03-03T00:33:29;100033.69;;;1.90;80.47
39267;BME280;24967;51.154;13.812;2023-03-03T00:35:59;100024.63;;;1.79;80.94
39267;BME280;24967;51.154;13.812;2023-03-03T00:38:33;100027.94;;;1.83;80.40
39267;BME280;24967;51.154;13.812;2023-03-03T00:41:00;100035.63;;;1.86;80.01
39267;BME280;24967;51.154;13.812;2023-03-03T00:43:34;100033.34;;;1.80;80.62
39267;BME280;24967;51.154;13.812;2023-03-03T00:46:01;100035.03;;;1.81;80.13
39267;BME280;24967;51.154;13.812;2023-03-03T00:48:29;100044.03;;;1.59;81.03
39267;BME280;24967;51.154;13.812;2023-03-03T00:50:57;100035.03;;;1.48;82.59
39267;BME280;24967;51.154;13.812;2023-03-03T00:53:26;100037.09;;;1.58;81.70
39267;BME280;24967;51.154;13.812;2023-03-03T00:55:54;100032.03;;;1.55;82.35
39267;BME280;24967;51.154;13.812;2023-03-03T00:58:22;100028.66;;;1.69;81.15
39267;BME280;24967;51.154;13.812;2023-03-03T01:00:51;100026.53;;;1.60;81.19
39267;BME280;24967;51.154;13.812;2023-03-03T01:03:19;100035.50;;;1.72;81.01
39267;BME280;24967;51.154;13.812;2023-03-03T01:05:46;100041.97;;;1.82;80.12
39267;BME280;24967;51.154;13.812;2023-03-03T01:08:13;100046.25;;;1.67;80.24
39267;BME280;24967;51.154;13.812;2023-03-03T01:10:43;100039.13;;;1.53;80.34
39267;BME280;24967;51.154;13.812;2023-03-03T01:13:12;100038.22;;;1.70;80.84
39267;BME280;24967;51.154;13.812;2023-03-03T01:15:39;100034.84;;;1.68;80.81
39267;BME280;24967;51.154;13.812;2023-03-03T01:18:06;100038.56;;;1.64;80.38
39267;BME280;24967;51.154;13.812;2023-03-03T01:20:32;100030.75;;;1.63;80.12
39267;BME280;24967;51.154;13.812;2023-03-03T01:22:59;100032.31;;;1.67;80.03
39267;BME280;24967;51.154;13.812;2023-03-03T01:25:26;100032.25;;;1.51;80.69
39267;BME280;24967;51.154;13.812;2023-03-03T01:27:52;100037.44;;;1.52;80.78
39267;BME280;24967;51.154;13.812;2023-03-03T01:30:20;100039.91;;;1.71;80.22
39267;BME280;24967;51.154;13.812;2023-03-03T01:32:47;100044.66;;;1.65;79.97
39267;BME280;24967;51.154;13.812;2023-03-03T01:35:14;100025.81;;;1.74;80.01
39267;BME280;24967;51.154;13.812;2023-03-03T01:37:40;100028.78;;;1.83;79.99
39267;BME280;24967;51.154;13.812;2023-03-03T01:40:14;100018.44;;;1.65;79.63
39267;BME280;24967;51.154;13.812;2023-03-03T01:42:41;100018.84;;;1.57;80.43
39267;BME280;24967;51.154;13.812;2023-03-03T01:45:12;100006.94;;;1.51;80.12
39267;BME280;24967;51.154;13.812;2023-03-03T01:47:42;99979.72;;;1.21;80.24
39267;BME280;24967;51.154;13.812;2023-03-03T01:50:14;100006.00;;;1.52;80.70
39267;BME280;24967;51.154;13.812;2023-03-03T01:52:45;99980.34;;;1.42;80.39
39267;BME280;24967;51.154;13.812;2023-03-03T01:55:14;100009.13;;;1.75;79.76
39267;BME280;24967;51.154;13.812;2023-03-03T01:57:48;100019.38;;;1.79;79.41
39267;BME280;24967;51.154;13.812;2023-03-03T02:00:18;100023.25;;;1.72;79.51
39267;BME280;24967;51.154;13.812;2023-03-03T02:02:46;100014.38;;;1.75;79.27
39267;BME280;24967;51.154;13.812;2023-03-03T02:05:15;100013.81;;;1.70;79.01
39267;BME280;24967;51.154;13.812;2023-03-03T02:07:42;100018.56;;;1.46;79.51
39267;BME280;24967;51.154;13.812;2023-03-03T02:10:11;100032.03;;;1.22;80.81
39267;BME280;24967;51.154;13.812;2023-03-03T02:12:41;100028.31;;;1.09;81.70
39267;BME280;24967;51.154;13.812;2023-03-03T02:15:16;100033.38;;;1.29;81.58
39267;BME280;24967;51.154;13.812;2023-03-03T02:17:43;100049.78;;;1.33;81.58
39267;BME280;24967;51.154;13.812;2023-03-03T02:20:15;100028.19;;;1.45;80.75
39267;BME280;24967;51.154;13.812;2023-03-03T02:22:48;100016.53;;;1.18;81.88
39267;BME280;24967;51.154;13.812;2023-03-03T02:25:21;100021.41;;;1.08;82.08
39267;BME280;24967;51.154;13.812;2023-03-03T02:27:53;100007.00;;;0.99;83.07
39267;BME280;24967;51.154;13.812;2023-03-03T02:30:23;100024.91;;;0.91;83.68
39267;BME280;24967;51.154;13.812;2023-03-03T02:32:50;100022.66;;;0.49;86.00
39267;BME280;24967;51.154;13.812;2023-03-03T02:35:28;100026.94;;;0.50;86.20
39267;BME280;24967;51.154;13.812;2023-03-03T02:38:01;100015.78;;;0.46;85.92
39267;BME280;24967;51.154;13.812;2023-03-03T02:40:34;100015.56;;;0.68;85.66
39267;BME280;24967;51.154;13.812;2023-03-03T02:43:22;100016.72;;;0.80;84.96
39267;BME280;24967;51.154;13.812;2023-03-03T02:45:51;100020.78;;;1.03;84.65
39267;BME280;24967;51.154;13.812;2023-03-03T02:48:17;100012.72;;;0.90;84.49
39267;BME280;24967;51.154;13.812;2023-03-03T02:50:43;100012.66;;;0.91;84.96
39267;BME280;24967;51.154;13.812;2023-03-03T02:53:10;99999.31;;;0.96;84.19
39267;BME280;24967;51.154;13.812;2023-03-03T02:55:36;100012.94;;;1.03;84.43
39267;BME280;24967;51.154;13.812;2023-03-03T02:58:03;100017.00;;;1.08;84.07
39267;BME280;24967;51.154;13.812;2023-03-03T03:00:31;100032.81;;;1.07;84.83
39267;BME280;24967;51.154;13.812;2023-03-03T03:02:57;100022.81;;;0.98;85.01
39267;BME280;24967;51.154;13.812;2023-03-03T03:05:24;100024.75;;;0.94;85.24
39267;BME280;24967;51.154;13.812;2023-03-03T03:07:50;100034.81;;;1.02;84.98
39267;BME280;24967;51.154;13.812;2023-03-03T03:10:17;100039.34;;;0.63;86.15
39267;BME280;24967;51.154;13.812;2023-03-03T03:12:43;100049.09;;;0.42;87.35
39267;BME280;24967;51.154;13.812;2023-03-03T03:15:10;100043.41;;;0.52;87.17
39267;BME280;24967;51.154;13.812;2023-03-03T03:17:38;100040.81;;;0.69;86.93
39267;BME280;24967;51.154;13.812;2023-03-03T03:20:05;100039.47;;;0.60;86.62
39267;BME280;24967;51.154;13.812;2023-03-03T03:22:31;100040.63;;;0.37;87.72
39267;BME280;24967;51.154;13.812;2023-03-03T03:24:58;100042.56;;;0.51;87.18
39267;BME280;24967;51.154;13.812;2023-03-03T03:27:24;100038.16;;;0.34;88.42
39267;BME280;24967;51.154;13.812;2023-03-03T03:29:51;100020.28;;;0.25;88.83
39267;BME280;24967;51.154;13.812;2023-03-03T03:32:17;100026.56;;;0.57;88.08
39267;BME280;24967;51.154;13.812;2023-03-03T03:34:45;100027.16;;;0.28;89.54
39267;BME280;24967;51.154;13.812;2023-03-03T03:37:11;100021.78;;;0.12;90.72
39267;BME280;24967;51.154;13.812;2023-03-03T03:39:38;99997.06;;;0.36;89.41
39267;BME280;24967;51.154;13.812;2023-03-03T03:42:05;100030.03;;;0.58;88.18
39267;BME280;24967;51.154;13.812;2023-03-03T03:44:34;100036.09;;;0.41;88.70
39267;BME280;24967;51.154;13.812;2023-03-03T03:47:01;100022.41;;;0.53;87.86
39267;BME280;24967;51.154;13.812;2023-03-03T03:49:27;100039.19;;;0.49;88.44
39267;BME280;24967;51.154;13.812;2023-03-03T03:51:55;100037.47;;;0.12;90.79
39267;BME280;24967;51.154;13.812;2023-03-03T03:54:22;100042.91;;;0.07;90.73
39267;BME280;24967;51.154;13.812;2023-03-03T03:56:48;100048.66;;;0.33;89.25
39267;BME280;24967;51.154;13.812;2023-03-03T03:59:15;100047.25;;;0.44;88.29
39267;BME280;24967;51.154;13.812;2023-03-03T04:01:41;100050.53;;;0.31;88.22
39267;BME280;24967;51.154;13.812;2023-03-03T04:04:08;100057.78;;;0.43;88.94
39267;BME280;24967;51.154;13.812;2023-03-03T04:06:34;100052.47;;;0.44;88.55
39267;BME280;24967;51.154;13.812;2023-03-03T04:09:02;100062.72;;;0.49;89.23
39267;BME280;24967;51.154;13.812;2023-03-03T04:11:29;100057.75;;;0.62;88.50
39267;BME280;24967;51.154;13.812;2023-03-03T04:13:55;100051.38;;;0.67;87.35
39267;BME280;24967;51.154;13.812;2023-03-03T04:16:25;100061.59;;;0.72;87.21
39267;BME280;24967;51.154;13.812;2023-03-03T04:18:51;100044.44;;;1.01;86.38
39267;BME280;24967;51.154;13.812;2023-03-03T04:21:18;100056.38;;;1.07;86.10
39267;BME280;24967;51.154;13.812;2023-03-03T04:23:47;100063.75;;;0.81;86.62
39267;BME280;24967;51.154;13.812;2023-03-03T04:26:16;100055.53;;;0.89;86.80
39267;BME280;24967;51.154;13.812;2023-03-03T04:28:44;100055.22;;;0.95;86.21
39267;BME280;24967;51.154;13.812;2023-03-03T04:31:11;100070.53;;;0.85;86.34
39267;BME280;24967;51.154;13.812;2023-03-03T04:33:38;100068.84;;;0.84;86.50
39267;BME280;24967;51.154;13.812;2023-03-03T04:36:05;100067.31;;;0.80;86.63
39267;BME280;24967;51.154;13.812;2023-03-03T04:38:31;100069.06;;;0.80;86.56
39267;BME280;24967;51.154;13.812;2023-03-03T04:40:58;100076.84;;;0.81;87.19
39267;BME280;24967;51.154;13.812;2023-03-03T04:43:26;100065.03;;;0.73;86.68
39267;BME280;24967;51.154;13.812;2023-03-03T04:45:52;100068.09;;;0.82;86.76
39267;BME280;24967;51.154;13.812;2023-03-03T04:48:19;100067.06;;;0.67;86.62
39267;BME280;24967;51.154;13.812;2023-03-03T04:50:45;100077.09;;;0.77;86.83
39267;BME280;24967;51.154;13.812;2023-03-03T04:53:11;100062.69;;;0.68;86.80
39267;BME280;24967;51.154;13.812;2023-03-03T04:55:38;100073.03;;;0.52;88.45
39267;BME280;24967;51.154;13.812;2023-03-03T04:58:05;100072.22;;;0.33;89.31
39267;BME280;24967;51.154;13.812;2023-03-03T05:00:33;100069.00;;;0.28;89.44
39267;BME280;24967;51.154;13.812;2023-03-03T05:03:01;100065.03;;;0.19;90.31
39267;BME280;24967;51.154;13.812;2023-03-03T05:05:29;100072.28;;;0.31;89.48
39267;BME280;24967;51.154;13.812;2023-03-03T05:07:55;100072.28;;;0.31;89.59
39267;BME280;24967;51.154;13.812;2023-03-03T05:10:22;100062.72;;;0.49;88.96
39267;BME280;24967;51.154;13.812;2023-03-03T05:12:48;100070.28;;;0.55;89.03
39267;BME280;24967;51.154;13.812;2023-03-03T05:15:15;100061.75;;;0.69;88.21
39267;BME280;24967;51.154;13.812;2023-03-03T05:17:42;100058.59;;;0.62;88.54
39267;BME280;24967;51.154;13.812;2023-03-03T05:20:11;100080.66;;;0.57;88.13
39267;BME280;24967;51.154;13.812;2023-03-03T05:22:40;100080.44;;;0.61;87.85
39267;BME280;24967;51.154;13.812;2023-03-03T05:25:07;100071.47;;;0.67;86.78
39267;BME280;24967;51.154;13.812;2023-03-03T05:27:37;100064.78;;;0.79;85.88
39267;BME280;24967;51.154;13.812;2023-03-03T05:30:06;100067.31;;;0.80;85.37
39267;BME280;24967;51.154;13.812;2023-03-03T05:32:34;100074.72;;;0.53;87.06
39267;BME280;24967;51.154;13.812;2023-03-03T05:35:02;100087.38;;;0.07;88.59
39267;BME280;24967;51.154;13.812;2023-03-03T05:37:28;100085.53;;;0.09;88.89
39267;BME280;24967;51.154;13.812;2023-03-03T05:39:55;100081.28;;;0.07;90.09
39267;BME280;24967;51.154;13.812;2023-03-03T05:42:22;100088.34;;;0.23;89.88
39267;BME280;24967;51.154;13.812;2023-03-03T05:44:48;100077.31;;;0.17;90.24
39267;BME280;24967;51.154;13.812;2023-03-03T05:47:14;100073.59;;;0.04;91.71
39267;BME280;24967;51.154;13.812;2023-03-03T05:49:41;100074.50;;;0.03;91.65
39267;BME280;24967;51.154;13.812;2023-03-03T05:52:09;100076.63;;;-0.06;92.70
39267;BME280;24967;51.154;13.812;2023-03-03T05:54:36;100073.28;;;-0.09;92.54
39267;BME280;24967;51.154;13.812;2023-03-03T05:57:02;100080.56;;;0.22;91.27
39267;BME280;24967;51.154;13.812;2023-03-03T05:59:29;100083.81;;;0.46;90.10
39267;BME280;24967;51.154;13.812;2023-03-03T06:01:55;100078.72;;;0.43;89.60
39267;BME280;24967;51.154;13.812;2023-03-03T06:04:22;100081.34;;;0.05;91.77
39267;BME280;24967;51.154;13.812;2023-03-03T06:06:48;100077.97;;;0.03;92.76
39267;BME280;24967;51.154;13.812;2023-03-03T06:09:17;100077.25;;;-0.01;93.53
39267;BME280;24967;51.154;13.812;2023-03-03T06:11:45;100080.16;;;0.12;92.46
39267;BME280;24967;51.154;13.812;2023-03-03T06:14:14;100072.22;;;0.33;92.05
39267;BME280;24967;51.154;13.812;2023-03-03T06:16:41;100070.88;;;0.43;91.99
39267;BME280;24967;51.154;13.812;2023-03-03T06:19:07;100078.72;;;0.60;90.42
39267;BME280;24967;51.154;13.812;2023-03-03T06:21:34;100078.91;;;0.38;90.46
39267;BME280;24967;51.154;13.812;2023-03-03T06:24:00;100090.09;;;0.42;90.58
39267;BME280;24967;51.154;13.812;2023-03-03T06:26:30;100093.34;;;0.47;90.61
39267;BME280;24967;51.154;13.812;2023-03-03T06:28:56;100105.47;;;0.31;92.34
39267;BME280;24967;51.154;13.812;2023-03-03T06:31:23;100114.84;;;0.35;91.78
39267;BME280;24967;51.154;13.812;2023-03-03T06:33:49;100127.34;;;0.47;91.96
39267;BME280;24967;51.154;13.812;2023-03-03T06:36:16;100119.66;;;0.25;92.60
39267;BME280;24967;51.154;13.812;2023-03-03T06:38:43;100101.41;;;0.23;92.74
39267;BME280;24967;51.154;13.812;2023-03-03T06:41:10;100116.34;;;0.21;93.10
39267;BME280;24967;51.154;13.812;2023-03-03T06:43:38;100114.34;;;0.27;93.32
39267;BME280;24967;51.154;13.812;2023-03-03T06:46:05;100108.69;;;0.36;92.10
39267;BME280;24967;51.154;13.812;2023-03-03T06:48:32;100105.78;;;0.42;91.50
39267;BME280;24967;51.154;13.812;2023-03-03T06:51:00;100107.47;;;0.62;91.18
39267;BME280;24967;51.154;13.812;2023-03-03T06:53:27;100116.59;;;0.53;91.09
39267;BME280;24967;51.154;13.812;2023-03-03T06:55:57;100120.44;;;0.63;90.97
39267;BME280;24967;51.154;13.812;2023-03-03T06:58:25;100134.41;;;0.64;91.25
39267;BME280;24967;51.154;13.812;2023-03-03T07:00:56;100112.91;;;0.57;92.15
39267;BME280;24967;51.154;13.812;2023-03-03T07:03:24;100117.22;;;0.58;91.99
39267;BME280;24967;51.154;13.812;2023-03-03T07:05:54;100121.06;;;0.13;93.50
39267;BME280;24967;51.154;13.812;2023-03-03T07:08:24;100116.25;;;0.23;94.35
39267;BME280;24967;51.154;13.812;2023-03-03T07:10:53;100118.03;;;0.22;94.90
39267;BME280;24967;51.154;13.812;2023-03-03T07:13:23;100127.38;;;0.09;95.04
39267;BME280;24967;51.154;13.812;2023-03-03T07:15:54;100124.81;;;0.08;95.77
39267;BME280;24967;51.154;13.812;2023-03-03T07:20:50;100132.94;;;0.02;96.00
39267;BME280;24967;51.154;13.812;2023-03-03T07:23:23;100144.31;;;0.01;97.35
39267;BME280;24967;51.154;13.812;2023-03-03T07:25:52;100149.41;;;0.22;96.06
39267;BME280;24967;51.154;13.812;2023-03-03T07:28:23;100152.38;;;0.34;95.02
39267;BME280;24967;51.154;13.812;2023-03-03T07:30:57;100149.28;;;0.26;94.49
39267;BME280;24967;51.154;13.812;2023-03-03T07:33:26;100156.47;;;0.02;95.38
39267;BME280;24967;51.154;13.812;2023-03-03T07:35:56;100155.59;;;-0.18;96.60
39267;BME280;24967;51.154;13.812;2023-03-03T07:38:30;100167.09;;;-0.03;96.82
39267;BME280;24967;51.154;13.812;2023-03-03T07:41:03;100161.91;;;0.16;95.71
39267;BME280;24967;51.154;13.812;2023-03-03T07:43:38;100159.88;;;0.22;95.33
39267;BME280;24967;51.154;13.812;2023-03-03T07:46:25;100161.56;;;0.23;94.75
39267;BME280;24967;51.154;13.812;2023-03-03T07:48:55;100162.97;;;0.12;95.72
39267;BME280;24967;51.154;13.812;2023-03-03T07:51:26;100168.13;;;0.13;95.58
39267;BME280;24967;51.154;13.812;2023-03-03T07:54:20;100163.19;;;0.07;96.14
39267;BME280;24967;51.154;13.812;2023-03-03T07:56:55;100165.13;;;-0.17;98.21
39267;BME280;24967;51.154;13.812;2023-03-03T07:59:26;100157.72;;;-0.07;97.66
39267;BME280;24967;51.154;13.812;2023-03-03T08:01:57;100172.69;;;-0.11;98.30
39267;BME280;24967;51.154;13.812;2023-03-03T08:04:31;100168.53;;;-0.35;99.54
39267;BME280;24967;51.154;13.812;2023-03-03T08:07:11;100169.81;;;-0.25;99.19
39267;BME280;24967;51.154;13.812;2023-03-03T08:09:47;100156.47;;;0.20;97.62
39267;BME280;24967;51.154;13.812;2023-03-03T08:12:30;100161.84;;;0.36;96.05
39267;BME280;24967;51.154;13.812;2023-03-03T08:15:14;100163.63;;;0.55;95.48
39267;BME280;24967;51.154;13.812;2023-03-03T08:17:50;100168.13;;;0.13;97.31
39267;BME280;24967;51.154;13.812;2023-03-03T08:20:48;100164.84;;;-0.11;98.97
39267;BME280;24967;51.154;13.812;2023-03-03T08:23:18;100164.41;;;0.38;96.42
39267;BME280;24967;51.154;13.812;2023-03-03T08:25:49;100165.28;;;0.18;96.60
39267;BME280;24967;51.154;13.812;2023-03-03T08:28:18;100161.09;;;0.34;95.55
39267;BME280;24967;51.154;13.812;2023-03-03T08:30:47;100156.28;;;0.25;96.01
39267;BME280;24967;51.154;13.812;2023-03-03T08:33:17;100159.63;;;0.08;96.87
39267;BME280;24967;51.154;13.812;2023-03-03T08:35:46;100165.28;;;0.18;96.24
39267;BME280;24967;51.154;13.812;2023-03-03T08:38:19;100171.25;;;0.21;95.90
39267;BME280;24967;51.154;13.812;2023-03-03T08:40:48;100178.72;;;0.10;97.20
39267;BME280;24967;51.154;13.812;2023-03-03T08:43:17;100190.13;;;0.09;96.93
39267;BME280;24967;51.154;13.812;2023-03-03T08:45:48;100193.50;;;0.30;96.27
39267;BME280;24967;51.154;13.812;2023-03-03T08:48:20;100187.16;;;0.55;95.08
39267;BME280;24967;51.154;13.812;2023-03-03T08:50:48;100195.56;;;0.23;96.50
39267;BME280;24967;51.154;13.812;2023-03-03T08:53:17;100182.00;;;0.34;96.88
39267;BME280;24967;51.154;13.812;2023-03-03T08:55:47;100186.31;;;0.35;95.60
39267;BME280;24967;51.154;13.812;2023-03-03T08:58:16;100189.34;;;0.26;96.06
39267;BME280;24967;51.154;13.812;2023-03-03T09:00:46;100185.03;;;0.25;95.41
39267;BME280;24967;51.154;13.812;2023-03-03T09:03:15;100193.44;;;0.51;94.42
39267;BME280;24967;51.154;13.812;2023-03-03T09:05:45;100185.38;;;0.36;94.12
39267;BME280;24967;51.154;13.812;2023-03-03T09:08:13;100190.69;;;0.16;94.46
39267;BME280;24967;51.154;13.812;2023-03-03T09:10:41;100186.19;;;-0.01;95.66
39267;BME280;24967;51.154;13.812;2023-03-03T09:13:14;100190.56;;;-0.02;96.07
39267;BME280;24967;51.154;13.812;2023-03-03T09:15:43;100194.16;;;0.16;95.71
39267;BME280;24967;51.154;13.812;2023-03-03T09:18:17;100191.50;;;-0.03;96.39
39267;BME280;24967;51.154;13.812;2023-03-03T09:20:47;100195.84;;;-0.03;96.50
39267;BME280;24967;51.154;13.812;2023-03-03T09:23:34;100192.97;;;-0.36;98.26
39267;BME280;24967;51.154;13.812;2023-03-03T09:26:24;100201.66;;;-0.36;98.67
39267;BME280;24967;51.154;13.812;2023-03-03T09:28:55;100205.38;;;-0.41;99.78
39267;BME280;24967;51.154;13.812;2023-03-03T09:31:26;100210.84;;;-0.48;100.00
39267;BME280;24967;51.154;13.812;2023-03-03T09:33:55;100211.13;;;-0.33;99.89
39267;BME280;24967;51.154;13.812;2023-03-03T09:36:28;100213.41;;;-0.05;99.16
39267;BME280;24967;51.154;13.812;2023-03-03T09:38:59;100210.56;;;-0.01;98.19
39267;BME280;24967;51.154;13.812;2023-03-03T09:41:39;100212.22;;;0.21;97.42
39267;BME280;24967;51.154;13.812;2023-03-03T09:44:20;100214.38;;;0.32;95.67
39267;BME280;24967;51.154;13.812;2023-03-03T09:46:59;100222.50;;;0.63;94.90
39267;BME280;24967;51.154;13.812;2023-03-03T09:49:31;100206.38;;;0.73;94.21
39267;BME280;24967;51.154;13.812;2023-03-03T09:52:12;100224.50;;;0.58;93.61
39267;BME280;24967;51.154;13.812;2023-03-03T09:54:53;100223.28;;;0.47;93.61
39267;BME280;24967;51.154;13.812;2023-03-03T09:57:28;100218.19;;;0.25;94.95
39267;BME280;24967;51.154;13.812;2023-03-03T10:00:19;100215.31;;;0.31;94.80
39267;BME280;24967;51.154;13.812;2023-03-03T10:03:28;100216.72;;;0.57;92.63
39267;BME280;24967;51.154;13.812;2023-03-03T10:06:03;100220.16;;;0.57;92.27
39267;BME280;24967;51.154;13.812;2023-03-03T10:08:51;100224.44;;;0.79;91.53
39267;BME280;24967;51.154;13.812;2023-03-03T10:11:27;100230.22;;;0.66;91.16
39267;BME280;24967;51.154;13.812;2023-03-03T10:14:12;100226.47;;;0.72;91.30
39267;BME280;24967;51.154;13.812;2023-03-03T10:17:01;100229.75;;;0.58;91.70
39267;BME280;24967;51.154;13.812;2023-03-03T10:19:37;100235.06;;;0.17;93.41
39267;BME280;24967;51.154;13.812;2023-03-03T10:22:17;100224.75;;;0.33;93.59
39267;BME280;24967;51.154;13.812;2023-03-03T10:25:11;100232.69;;;0.32;93.25
39267;BME280;24967;51.154;13.812;2023-03-03T10:27:54;100232.41;;;0.38;93.19
39267;BME280;24967;51.154;13.812;2023-03-03T10:30:30;100232.25;;;0.41;92.66
39267;BME280;24967;51.154;13.812;2023-03-03T10:33:07;100236.22;;;0.31;93.52
39267;BME280;24967;51.154;13.812;2023-03-03T10:35:49;100236.94;;;0.53;92.43
39267;BME280;24967;51.154;13.812;2023-03-03T10:38:31;100232.50;;;0.74;91.85
39267;BME280;24967;51.154;13.812;2023-03-03T10:41:33;100237.03;;;0.71;91.55
39267;BME280;24967;51.154;13.812;2023-03-03T10:47:24;100230.16;;;0.68;91.18
39267;BME280;24967;51.154;13.812;2023-03-03T10:50:01;100230.16;;;0.68;91.01
39267;BME280;24967;51.154;13.812;2023-03-03T10:52:35;100227.88;;;0.60;91.35
39267;BME280;24967;51.154;13.812;2023-03-03T10:55:20;100227.75;;;0.63;91.74
39267;BME280;24967;51.154;13.812;2023-03-03T10:58:10;100234.31;;;0.91;90.30
39267;BME280;24967;51.154;13.812;2023-03-03T11:00:47;100240.78;;;0.65;90.09
39267;BME280;24967;51.154;13.812;2023-03-03T11:03:41;100235.09;;;0.74;90.98
39267;BME280;24967;51.154;13.812;2023-03-03T11:06:17;100236.22;;;0.50;92.04
39267;BME280;24967;51.154;13.812;2023-03-03T11:08:50;100229.66;;;0.60;92.42
39267;BME280;24967;51.154;13.812;2023-03-03T11:11:27;100224.06;;;0.86;91.27
39267;BME280;24967;51.154;13.812;2023-03-03T11:14:08;100220.19;;;0.76;91.23
39267;BME280;24967;51.154;13.812;2023-03-03T11:16:44;100224.69;;;0.91;91.62
39267;BME280;24967;51.154;13.812;2023-03-03T11:19:42;100227.19;;;0.76;91.68
39267;BME280;24967;51.154;13.812;2023-03-03T11:22:29;100226.28;;;0.58;92.16
39267;BME280;24967;51.154;13.812;2023-03-03T11:25:07;100223.22;;;0.67;92.23
39267;BME280;24967;51.154;13.812;2023-03-03T11:27:54;100224.63;;;0.74;91.63
39267;BME280;24967;51.154;13.812;2023-03-03T11:33:33;100211.91;;;0.66;92.01
39267;BME280;24967;51.154;13.812;2023-03-03T11:36:10;100206.38;;;0.73;91.55
39267;BME280;24967;51.154;13.812;2023-03-03T11:38:56;100205.81;;;0.47;93.44
39267;BME280;24967;51.154;13.812;2023-03-03T11:41:31;100208.94;;;0.55;94.17
39267;BME280;24967;51.154;13.812;2023-03-03T11:44:18;100212.41;;;0.56;93.54
39267;BME280;24967;51.154;13.812;2023-03-03T11:46:54;100210.06;;;0.68;93.48
39267;BME280;24967;51.154;13.812;2023-03-03T11:49:30;100207.84;;;0.78;92.97
39267;BME280;24967;51.154;13.812;2023-03-03T11:52:15;100202.00;;;0.54;93.24
39267;BME280;24967;51.154;13.812;2023-03-03T11:54:52;100203.56;;;0.58;93.10
39267;BME280;24967;51.154;13.812;2023-03-03T11:57:28;100201.53;;;0.46;92.75
39267;BME280;24967;51.154;13.812;2023-03-03T12:00:04;100199.06;;;0.43;92.62
39267;BME280;24967;51.154;13.812;2023-03-03T12:02:57;100202.09;;;0.34;93.73
39267;BME280;24967;51.154;13.812;2023-03-03T12:05:38;100209.22;;;0.49;93.48
39267;BME280;24967;51.154;13.812;2023-03-03T12:08:21;100198.69;;;0.51;92.90
39267;BME280;24967;51.154;13.812;2023-03-03T12:10:58;100212.13;;;0.43;93.40
39267;BME280;24967;51.154;13.812;2023-03-03T12:13:37;100201.44;;;0.48;92.58
39267;BME280;24967;51.154;13.812;2023-03-03T12:16:15;100194.78;;;0.59;92.08
39267;BME280;24967;51.154;13.812;2023-03-03T12:18:59;100196.75;;;0.92;90.59
39267;BME280;24967;51.154;13.812;2023-03-03T12:21:43;100185.97;;;0.98;90.70
39267;BME280;24967;51.154;13.812;2023-03-03T12:24:26;100183.84;;;1.24;88.96
39267;BME280;24967;51.154;13.812;2023-03-03T12:26:58;100186.06;;;1.14;88.64
39267;BME280;24967;51.154;13.812;2023-03-03T12:29:35;100190.25;;;1.18;88.63
39267;BME280;24967;51.154;13.812;2023-03-03T12:32:25;100181.59;;;0.99;89.02
39267;BME280;24967;51.154;13.812;2023-03-03T12:35:04;100180.59;;;1.01;89.54
39267;BME280;24967;51.154;13.812;2023-03-03T12:37:46;100185.69;;;1.04;89.96
39267;BME280;24967;51.154;13.812;2023-03-03T12:40:18;100185.06;;;1.17;89.51
39267;BME280;24967;51.154;13.812;2023-03-03T12:42:58;100172.69;;;1.20;88.72
39267;BME280;24967;51.154;13.812;2023-03-03T12:45:48;100168.91;;;1.26;88.85
39267;BME280;24967;51.154;13.812;2023-03-03T12:48:22;100164.13;;;1.17;88.25
39267;BME280;24967;51.154;13.812;2023-03-03T12:50:59;100163.28;;;1.51;86.65
39267;BME280;24967;51.154;13.812;2023-03-03T12:53:44;100170.28;;;1.33;87.61
39267;BME280;24967;51.154;13.812;2023-03-03T12:56:19;100169.00;;;1.24;87.97
39267;BME280;24967;51.154;13.812;2023-03-03T12:58:54;100158.97;;;0.98;89.58
39267;BME280;24967;51.154;13.812;2023-03-03T13:01:42;100160.59;;;1.35;88.61
39267;BME280;24967;51.154;13.812;2023-03-03T13:04:26;100160.13;;;1.62;87.73
39267;BME280;24967;51.154;13.812;2023-03-03T13:06:58;100152.97;;;1.30;88.12
39267;BME280;24967;51.154;13.812;2023-03-03T13:09:38;100157.06;;;1.19;87.87
39267;BME280;24967;51.154;13.812;2023-03-03T13:12:17;100153.88;;;1.47;87.42
39267;BME280;24967;51.154;13.812;2023-03-03T13:14:52;100145.66;;;1.37;87.59
39267;BME280;24967;51.154;13.812;2023-03-03T13:17:24;100146.03;;;1.29;87.80
39267;BME280;24967;51.154;13.812;2023-03-03T13:19:56;100148.66;;;1.64;87.65
39267;BME280;24967;51.154;13.812;2023-03-03T13:22:36;100149.88;;;1.57;86.79
39267;BME280;24967;51.154;13.812;2023-03-03T13:25:13;100154.03;;;1.26;87.31